Time;durP1;ratioP1;P1;durP2;ratioP2;P2;SDS_P1;SDS_P2;PMS_P1;PMS_P2;Temp;Humidity;BMP_temperature;BMP_pressure;BME280_temperature;BME280_humidity;BME280_pressure;Samples;Min_cycle;Max_cycle;Signal;HPM_P1;HPM_P2
2022/09/14 00:01:30;;;;;;;4.28;2.83;;;23.80;49.80;;;;;;20441;6864;337336;-87
2022/09/14 00:03:55;;;;;;;3.23;2.80;;;23.90;50.50;;;;;;20628;6864;126080;-88
2022/09/14 00:06:22;;;;;;;4.00;2.77;;;23.60;50.20;;;;;;20619;6864;117647;-88
2022/09/14 00:08:50;;;;;;;3.50;3.20;;;23.80;50.10;;;;;;20449;6864;307086;-88
2022/09/14 00:11:16;;;;;;;2.80;2.60;;;23.80;50.40;;;;;;20651;6864;121319;-88
2022/09/14 00:13:41;;;;;;;3.33;3.03;;;23.70;50.10;;;;;;20446;6864;279019;-88
2022/09/14 00:16:07;;;;;;;3.13;2.90;;;23.80;50.40;;;;;;20607;6864;118201;-88
2022/09/14 00:18:33;;;;;;;3.40;2.50;;;23.70;50.30;;;;;;20622;6864;117621;-87
2022/09/14 00:20:58;;;;;;;2.70;2.50;;;23.50;50.60;;;;;;20642;6864;117712;-87
2022/09/14 00:23:24;;;;;;;3.47;2.70;;;23.30;50.90;;;;;;20396;6862;293000;-89
2022/09/14 00:25:49;;;;;;;2.47;2.37;;;23.50;50.90;;;;;;20439;6864;311511;-88
2022/09/14 00:28:15;;;;;;;2.97;2.40;;;23.80;50.80;;;;;;20418;6864;307707;-88
2022/09/14 00:30:41;;;;;;;2.80;2.60;;;24.10;50.30;;;;;;20434;6864;308041;-87
2022/09/14 00:33:07;;;;;;;2.72;2.50;;;24.40;49.60;;;;;;20455;6864;307640;-88
2022/09/14 00:35:34;;;;;;;2.80;2.60;;;24.40;49.60;;;;;;20661;6864;117256;-87
2022/09/14 00:38:01;;;;;;;3.63;2.53;;;24.20;49.60;;;;;;20627;6864;119409;-87
2022/09/14 00:40:29;;;;;;;3.87;2.87;;;23.60;50.70;;;;;;20643;6864;117753;-88
2022/09/14 00:42:54;;;;;;;3.28;2.90;;;23.60;50.70;;;;;;20430;6864;317563;-88
2022/09/14 00:45:20;;;;;;;2.60;2.40;;;23.70;51.00;;;;;;20655;6864;117821;-88
2022/09/14 00:47:45;;;;;;;3.25;2.50;;;23.60;50.60;;;;;;20445;6864;279345;-88
2022/09/14 00:50:11;;;;;;;2.53;2.33;;;23.70;50.40;;;;;;20397;6864;308996;-87
2022/09/14 00:52:36;;;;;;;2.40;2.20;;;23.90;50.20;;;;;;20638;6864;117684;-87
2022/09/14 00:55:06;;;;;;;2.70;2.50;;;23.80;50.10;;;;;;20630;6864;118561;-87
2022/09/14 00:57:31;;;;;;;2.50;2.30;;;23.50;50.50;;;;;;20632;6864;117866;-87
2022/09/14 00:59:58;;;;;;;2.83;2.30;;;23.30;50.80;;;;;;20624;6864;118833;-88
2022/09/14 01:02:23;;;;;;;2.47;2.28;;;23.10;51.00;;;;;;20438;6864;341259;-89
2022/09/14 01:04:49;;;;;;;3.57;2.20;;;23.30;51.30;;;;;;20643;6864;117558;-88
2022/09/14 01:07:37;;;;;;;2.70;2.50;;;23.40;51.10;;;;;;20434;6864;308627;-88
2022/09/14 01:10:22;;;;;;;2.50;2.30;;;23.50;51.40;;;;;;20628;6864;121572;-87
2022/09/14 01:13:09;;;;;;;2.77;2.40;;;23.50;51.20;;;;;;20422;6864;279718;-87
2022/09/14 01:15:52;;;;;;;2.67;2.30;;;23.50;51.20;;;;;;20392;6864;309385;-87
2022/09/14 01:18:20;;;;;;;3.77;2.50;;;23.80;50.60;;;;;;20654;6864;117355;-87
2022/09/14 01:21:01;;;;;;;3.53;2.60;;;23.40;51.30;;;;;;20648;6864;117320;-87
2022/09/14 01:23:47;;;;;;;5.30;2.80;;;23.30;51.20;;;;;;19938;6864;313076;-87
2022/09/14 01:26:29;;;;;;;3.60;2.67;;;23.40;52.90;;;;;;20627;6864;117862;-87
2022/09/14 01:29:01;;;;;;;2.47;2.27;;;23.30;52.50;;;;;;20653;6864;117815;-88
2022/09/14 01:31:27;;;;;;;3.47;3.17;;;23.00;52.70;;;;;;20409;6864;310238;-87
2022/09/14 01:33:56;;;;;;;3.03;2.80;;;23.20;55.00;;;;;;20392;6864;307882;-87
2022/09/14 01:36:23;;;;;;;3.93;2.87;;;22.90;54.00;;;;;;20623;6862;118106;-86
2022/09/14 01:38:48;;;;;;;4.30;3.20;;;22.90;54.00;;;;;;20435;6864;278052;-86
2022/09/14 01:41:14;;;;;;;4.23;3.93;;;22.80;55.50;;;;;;20437;6864;282604;-86
2022/09/14 01:43:43;;;;;;;3.78;3.58;;;22.90;55.50;;;;;;20435;6864;278591;-87
2022/09/14 01:46:21;;;;;;;5.70;3.47;;;23.00;55.60;;;;;;20602;6864;118299;-87
2022/09/14 01:49:01;;;;;;;3.17;2.90;;;22.70;55.40;;;;;;20630;6864;118137;-87
2022/09/14 01:51:30;;;;;;;4.23;2.70;;;22.30;55.80;;;;;;20634;6864;121282;-87
2022/09/14 01:54:02;;;;;;;2.97;2.67;;;22.00;56.20;;;;;;20472;6864;122693;-87
2022/09/14 01:56:31;;;;;;;3.60;2.43;;;21.80;56.60;;;;;;20619;6864;117589;-87
2022/09/14 01:59:06;;;;;;;4.17;2.40;;;21.70;57.00;;;;;;20625;6864;118922;-87
2022/09/14 02:01:32;;;;;;;2.90;2.70;;;21.50;57.10;;;;;;20390;6864;307437;-87
2022/09/14 02:03:58;;;;;;;2.97;2.60;;;21.90;57.70;;;;;;20608;6864;122512;-87
2022/09/14 02:06:27;;;;;;;3.12;2.92;;;22.10;58.50;;;;;;20433;6864;337712;-87
2022/09/14 02:08:53;;;;;;;3.00;2.80;;;22.10;58.50;;;;;;20632;6864;117294;-88
2022/09/14 02:11:19;;;;;;;5.62;2.80;;;22.00;57.80;;;;;;20449;6864;337705;-87
2022/09/14 02:13:44;;;;;;;2.70;2.60;;;22.20;58.10;;;;;;20644;6864;117951;-86
2022/09/14 02:16:10;;;;;;;3.22;2.92;;;22.20;57.70;;;;;;20419;6864;308197;-86
2022/09/14 02:18:35;;;;;;;2.70;2.60;;;22.40;58.00;;;;;;20640;6864;117594;-86
2022/09/14 02:21:11;;;;;;;2.62;2.40;;;22.30;57.80;;;;;;20431;6864;307970;-86
2022/09/14 02:23:36;;;;;;;3.60;2.80;;;22.40;58.70;;;;;;20349;6864;294650;-86
2022/09/14 02:26:02;;;;;;;2.93;2.73;;;22.70;58.50;;;;;;20637;6864;118737;-86
2022/09/14 02:28:27;;;;;;;3.60;2.70;;;22.60;58.10;;;;;;20436;6864;308929;-86
2022/09/14 02:30:54;;;;;;;3.00;2.70;;;22.50;58.60;;;;;;20650;6864;117426;-86
2022/09/14 02:33:29;;;;;;;3.00;2.62;;;22.50;58.60;;;;;;20407;6864;307672;-86
2022/09/14 02:35:56;;;;;;;3.30;3.00;;;22.60;58.90;;;;;;20321;6864;306584;-86
2022/09/14 02:38:23;;;;;;;4.53;3.17;;;22.80;58.20;;;;;;20636;6864;117026;-86
2022/09/14 02:40:56;;;;;;;3.20;2.90;;;22.70;58.00;;;;;;20408;6864;279073;-86
2022/09/14 02:43:52;;;;;;;3.75;3.37;;;22.70;58.30;;;;;;20413;6864;337870;-86
2022/09/14 02:46:37;;;;;;;3.60;3.30;;;22.80;57.90;;;;;;20405;6863;337721;-86
2022/09/14 02:49:29;;;;;;;3.37;3.17;;;23.00;57.10;;;;;;20619;6864;117186;-86
2022/09/14 02:51:58;;;;;;;3.40;3.10;;;22.70;57.30;;;;;;20415;6864;308185;-87
2022/09/14 02:54:23;;;;;;;3.77;3.47;;;22.70;58.20;;;;;;20422;6864;278847;-86
2022/09/14 02:56:49;;;;;;;2.90;2.70;;;22.90;58.10;;;;;;20611;6864;116212;-86
2022/09/14 02:59:14;;;;;;;3.33;2.97;;;22.70;57.80;;;;;;20651;6864;117348;-86
2022/09/14 03:01:40;;;;;;;3.28;2.97;;;22.40;58.20;;;;;;20431;6864;308216;-85
2022/09/14 03:04:07;;;;;;;3.17;2.97;;;22.50;58.70;;;;;;20639;6864;118979;-84
2022/09/14 03:06:32;;;;;;;4.57;3.10;;;22.40;58.40;;;;;;20643;6864;118434;-85
2022/09/14 03:08:58;;;;;;;3.50;3.20;;;22.20;58.60;;;;;;20445;6864;337568;-84
2022/09/14 03:11:24;;;;;;;3.40;3.20;;;22.20;58.50;;;;;;20650;6864;118557;-84
2022/09/14 03:13:52;;;;;;;3.65;3.35;;;22.30;59.80;;;;;;20444;6864;282771;-84
2022/09/14 03:16:18;;;;;;;6.07;3.63;;;22.30;59.80;;;;;;20634;6864;122800;-85
2022/09/14 03:18:44;;;;;;;4.67;3.53;;;22.10;59.50;;;;;;20637;6864;121395;-85
2022/09/14 03:21:10;;;;;;;3.67;3.37;;;21.80;60.10;;;;;;20637;6864;119227;-84
2022/09/14 03:23:36;;;;;;;3.50;3.20;;;21.50;60.40;;;;;;20639;6864;117861;-85
2022/09/14 03:26:01;;;;;;;4.47;3.55;;;21.30;60.80;;;;;;20630;6864;118957;-85
2022/09/14 03:28:27;;;;;;;3.63;3.43;;;21.10;61.20;;;;;;20638;6864;117693;-86
2022/09/14 03:30:52;;;;;;;4.45;4.10;;;21.00;61.80;;;;;;20653;6864;117854;-87
2022/09/14 03:33:18;;;;;;;5.90;3.70;;;20.90;62.20;;;;;;20436;6864;306562;-86
2022/09/14 03:35:44;;;;;;;5.18;4.30;;;21.60;63.60;;;;;;20434;6864;337995;-86
2022/09/14 03:38:11;;;;;;;5.60;4.15;;;21.80;62.80;;;;;;20429;6864;308242;-86
2022/09/14 03:40:36;;;;;;;4.37;4.07;;;21.80;62.80;;;;;;20655;6864;118669;-85
2022/09/14 03:43:02;;;;;;;5.70;4.00;;;21.70;62.30;;;;;;20643;6864;117972;-87
2022/09/14 03:45:27;;;;;;;4.05;3.75;;;21.40;62.60;;;;;;20650;6864;118516;-86
2022/09/14 03:47:53;;;;;;;4.25;4.05;;;21.20;63.20;;;;;;20420;6864;312497;-86
2022/09/14 03:50:18;;;;;;;3.90;3.70;;;21.30;64.40;;;;;;20446;6864;338145;-87
2022/09/14 03:52:44;;;;;;;4.12;3.90;;;21.60;63.10;;;;;;20672;6864;117974;-87
2022/09/14 03:55:10;;;;;;;4.40;4.07;;;21.50;62.80;;;;;;20450;6864;301172;-90
2022/09/14 03:57:36;;;;;;;6.23;4.13;;;21.60;63.10;;;;;;20445;6863;337609;-90
2022/09/14 04:00:02;;;;;;;4.17;3.77;;;21.60;62.30;;;;;;20638;6863;117709;-87
2022/09/14 04:02:27;;;;;;;4.35;3.95;;;21.60;62.20;;;;;;20434;6864;341534;-87
2022/09/14 04:04:53;;;;;;;4.50;4.20;;;21.70;62.90;;;;;;20424;6864;308381;-87
2022/09/14 04:07:19;;;;;;;4.35;4.03;;;21.90;62.00;;;;;;20442;6864;308182;-87
2022/09/14 04:09:45;;;;;;;4.67;4.30;;;21.90;61.70;;;;;;20654;6864;121280;-86
2022/09/14 04:12:10;;;;;;;4.57;4.10;;;21.80;61.60;;;;;;20624;6864;117980;-86
2022/09/14 04:14:36;;;;;;;5.00;4.50;;;21.60;62.30;;;;;;20429;6864;279807;-87
2022/09/14 04:17:01;;;;;;;4.87;4.47;;;21.60;62.30;;;;;;20659;6864;117392;-87
2022/09/14 04:19:27;;;;;;;4.10;3.90;;;21.50;62.30;;;;;;20659;6864;118321;-87
2022/09/14 04:21:52;;;;;;;4.78;3.90;;;21.30;62.80;;;;;;20456;6864;278894;-87
2022/09/14 04:24:18;;;;;;;4.07;3.67;;;21.40;63.70;;;;;;20317;6864;336860;-85
2022/09/14 04:26:44;;;;;;;4.63;4.30;;;21.70;62.60;;;;;;20450;6864;312528;-87
2022/09/14 04:29:09;;;;;;;4.03;3.83;;;22.00;63.10;;;;;;20661;6864;118321;-86
2022/09/14 04:31:36;;;;;;;4.73;4.33;;;21.90;62.40;;;;;;20659;6864;117416;-86
2022/09/14 04:34:02;;;;;;;4.97;4.40;;;21.70;62.90;;;;;;20426;6864;278487;-87
2022/09/14 04:36:29;;;;;;;5.83;4.80;;;21.80;63.70;;;;;;20449;6864;281479;-86
2022/09/14 04:38:53;;;;;;;4.57;4.37;;;22.00;63.40;;;;;;20624;6864;117458;-85
2022/09/14 04:41:22;;;;;;;4.60;4.30;;;21.90;63.20;;;;;;20440;6864;307281;-85
2022/09/14 04:43:49;;;;;;;4.37;4.10;;;21.90;63.40;;;;;;20649;6864;117451;-86
2022/09/14 04:46:15;;;;;;;4.90;4.40;;;21.90;63.50;;;;;;20414;6864;313413;-86
2022/09/14 04:48:40;;;;;;;4.60;4.30;;;21.90;63.70;;;;;;20426;6864;343209;-86
2022/09/14 04:51:06;;;;;;;5.10;4.73;;;22.10;63.10;;;;;;20651;6864;117876;-86
2022/09/14 04:53:32;;;;;;;4.70;4.40;;;22.00;62.70;;;;;;20431;6864;308932;-86
2022/09/14 04:56:01;;;;;;;10.50;5.60;;;22.00;62.70;;;;;;20422;6864;308553;-86
2022/09/14 04:58:27;;;;;;;6.67;5.17;;;22.20;62.90;;;;;;20447;6864;297658;-85
2022/09/14 05:01:00;;;;;;;5.30;5.00;;;22.10;62.70;;;;;;20664;6864;117980;-87
2022/09/14 05:03:26;;;;;;;4.93;4.53;;;22.10;62.60;;;;;;20655;6864;118864;-86
2022/09/14 05:05:51;;;;;;;4.62;4.32;;;21.70;63.40;;;;;;20672;6864;117249;-86
2022/09/14 05:08:17;;;;;;;4.60;4.30;;;21.50;64.20;;;;;;20637;6864;118171;-85
2022/09/14 05:10:43;;;;;;;4.70;4.40;;;21.30;64.70;;;;;;20659;6863;120239;-85
2022/09/14 05:13:10;;;;;;;5.45;4.90;;;21.10;65.20;;;;;;20445;6864;278898;-85
2022/09/14 05:15:35;;;;;;;5.03;4.72;;;21.30;65.60;;;;;;20442;6864;337598;-85
2022/09/14 05:18:02;;;;;;;4.87;4.53;;;21.70;65.00;;;;;;20641;6864;117492;-85
2022/09/14 05:20:29;;;;;;;4.97;4.57;;;21.60;64.70;;;;;;20648;6864;117506;-85
2022/09/14 05:22:54;;;;;;;5.40;5.00;;;21.40;65.20;;;;;;20441;6864;341272;-86
2022/09/14 05:25:20;;;;;;;4.55;4.20;;;21.50;65.10;;;;;;20681;6864;121062;-87
2022/09/14 05:27:45;;;;;;;4.57;4.17;;;21.50;64.90;;;;;;20734;6864;117491;-88
2022/09/14 05:30:11;;;;;;;4.50;4.20;;;21.20;65.20;;;;;;20524;6864;306947;-85
2022/09/14 05:32:38;;;;;;;4.30;4.03;;;21.40;65.30;;;;;;20725;6864;117591;-84
2022/09/14 05:35:03;;;;;;;4.53;4.13;;;21.40;65.10;;;;;;20533;6864;306459;-85
2022/09/14 05:37:29;;;;;;;4.57;4.17;;;21.50;65.60;;;;;;20521;6864;307430;-85
2022/09/14 05:39:55;;;;;;;3.87;3.63;;;21.80;65.30;;;;;;20728;6864;116653;-86
2022/09/14 05:42:20;;;;;;;4.57;4.27;;;21.70;65.20;;;;;;20496;6864;310369;-83
2022/09/14 05:44:46;;;;;;;4.30;3.90;;;21.80;65.60;;;;;;20720;6864;117697;-84
2022/09/14 05:47:11;;;;;;;4.53;4.07;;;21.70;65.50;;;;;;20526;6864;277962;-85
2022/09/14 05:49:38;;;;;;;4.50;4.10;;;22.00;66.10;;;;;;20469;6864;316314;-84
2022/09/14 05:52:04;;;;;;;4.20;3.90;;;22.00;65.40;;;;;;20433;6864;278463;-86
2022/09/14 05:54:29;;;;;;;4.40;4.10;;;22.20;64.60;;;;;;20449;6864;292180;-86
2022/09/14 05:56:54;;;;;;;4.57;3.97;;;22.40;64.40;;;;;;20462;6864;308157;-86
2022/09/14 05:59:20;;;;;;;4.20;3.80;;;22.50;64.10;;;;;;20663;6864;121305;-85
2022/09/14 06:01:45;;;;;;;4.77;3.97;;;22.30;65.00;;;;;;20455;6864;284628;-87
2022/09/14 06:04:11;;;;;;;4.43;4.03;;;22.40;65.00;;;;;;20421;6864;337620;-85
2022/09/14 06:06:37;;;;;;;4.32;4.03;;;22.50;64.70;;;;;;20662;6864;117275;-83
2022/09/14 06:09:02;;;;;;;4.65;4.25;;;22.40;64.80;;;;;;20454;6864;306730;-84
2022/09/14 06:11:28;;;;;;;5.87;5.23;;;22.50;65.10;;;;;;20454;6864;310865;-84
2022/09/14 06:13:58;;;;;;;5.15;4.55;;;22.70;64.40;;;;;;20409;6864;307626;-88
2022/09/14 06:16:23;;;;;;;5.22;4.72;;;22.90;64.00;;;;;;20477;6864;312300;-86
2022/09/14 06:18:49;;;;;;;4.87;4.40;;;23.00;63.40;;;;;;20464;6864;302267;-85
2022/09/14 06:21:15;;;;;;;4.28;3.67;;;22.90;63.00;;;;;;20668;6863;117451;-85
2022/09/14 06:23:41;;;;;;;4.13;3.63;;;22.90;63.00;;;;;;20645;6864;121558;-85
2022/09/14 06:26:06;;;;;;;3.60;3.40;;;22.60;63.90;;;;;;20625;6864;121005;-88
2022/09/14 06:28:32;;;;;;;3.92;3.53;;;22.40;64.80;;;;;;20451;6864;278208;-84
2022/09/14 06:30:57;;;;;;;3.67;3.37;;;22.50;66.20;;;;;;20447;6864;309363;-85
2022/09/14 06:33:23;;;;;;;3.50;3.30;;;22.70;64.90;;;;;;20438;6864;311945;-83
2022/09/14 06:35:55;;;;;;;3.90;3.50;;;23.00;64.30;;;;;;20451;6864;279550;-84
2022/09/14 06:38:22;;;;;;;3.73;3.43;;;23.00;63.60;;;;;;20635;6864;117689;-83
2022/09/14 06:40:58;;;;;;;3.53;3.10;;;22.70;64.30;;;;;;20657;6864;117993;-85
2022/09/14 06:43:23;;;;;;;3.37;3.10;;;22.70;64.30;;;;;;20646;6864;122232;-83
2022/09/14 06:46:03;;;;;;;3.65;3.35;;;22.40;64.90;;;;;;20439;6864;336976;-84
2022/09/14 06:48:29;;;;;;;5.33;3.70;;;22.50;65.40;;;;;;20659;6864;118064;-84
2022/09/14 06:50:55;;;;;;;3.90;3.50;;;22.60;65.20;;;;;;20449;6864;328274;-84
2022/09/14 06:53:21;;;;;;;3.33;3.13;;;22.60;65.20;;;;;;20633;6864;121259;-84
2022/09/14 06:55:48;;;;;;;3.93;3.63;;;22.60;65.00;;;;;;20445;6864;308484;-84
2022/09/14 06:58:13;;;;;;;4.10;3.80;;;22.70;65.60;;;;;;20427;6864;312753;-83
2022/09/14 07:00:39;;;;;;;4.63;3.70;;;23.00;65.30;;;;;;20441;6864;317982;-84
2022/09/14 07:03:05;;;;;;;4.00;3.70;;;23.30;65.30;;;;;;20447;6864;284287;-84
2022/09/14 07:05:30;;;;;;;4.12;3.80;;;23.50;63.80;;;;;;20446;6864;309162;-84
2022/09/14 07:07:55;;;;;;;4.22;3.90;;;23.60;63.20;;;;;;20427;6864;308790;-84
2022/09/14 07:10:21;;;;;;;3.35;3.15;;;23.70;62.90;;;;;;20657;6864;117894;-84
2022/09/14 07:12:47;;;;;;;4.00;3.28;;;23.50;63.30;;;;;;20639;6864;122306;-84
2022/09/14 07:15:12;;;;;;;4.75;3.70;;;23.20;64.10;;;;;;20670;6864;117324;-84
2022/09/14 07:17:38;;;;;;;4.47;3.67;;;23.00;65.00;;;;;;20450;6864;278178;-83
2022/09/14 07:20:04;;;;;;;3.65;3.28;;;23.10;65.50;;;;;;20443;6864;321673;-85
2022/09/14 07:22:29;;;;;;;3.30;3.10;;;23.40;64.40;;;;;;20648;6864;117395;-83
2022/09/14 07:24:56;;;;;;;3.40;3.13;;;23.40;64.40;;;;;;20654;6864;117917;-82
2022/09/14 07:27:21;;;;;;;3.72;3.40;;;23.30;65.10;;;;;;20465;6864;335863;-83
2022/09/14 07:29:47;;;;;;;3.60;3.30;;;23.50;65.00;;;;;;20678;6864;121024;-83
2022/09/14 07:32:12;;;;;;;3.30;3.00;;;23.50;65.10;;;;;;20631;6864;121426;-84
2022/09/14 07:34:38;;;;;;;4.20;3.37;;;23.40;65.50;;;;;;20455;6862;312204;-84
2022/09/14 07:37:05;;;;;;;3.72;3.42;;;23.60;65.00;;;;;;20462;6864;311809;-85
2022/09/14 07:39:30;;;;;;;4.03;3.37;;;24.00;64.00;;;;;;20668;6864;117216;-83
2022/09/14 07:41:56;;;;;;;3.75;3.30;;;24.10;63.80;;;;;;20436;6864;340591;-84
2022/09/14 07:44:23;;;;;;;3.10;2.90;;;24.30;63.20;;;;;;20684;6864;117874;-84
2022/09/14 07:46:49;;;;;;;3.33;3.00;;;24.30;63.10;;;;;;20672;6864;117393;-84
2022/09/14 07:49:14;;;;;;;3.40;3.10;;;24.10;63.40;;;;;;20651;6864;118660;-84
2022/09/14 07:51:40;;;;;;;3.25;3.05;;;24.10;63.90;;;;;;20458;6864;290893;-84
2022/09/14 07:54:07;;;;;;;4.73;2.97;;;24.30;64.00;;;;;;20637;6864;117459;-85
2022/09/14 07:56:33;;;;;;;3.23;2.90;;;24.50;63.70;;;;;;20658;6864;117555;-83
2022/09/14 07:58:59;;;;;;;5.00;2.93;;;24.50;63.70;;;;;;20448;6864;307384;-83
2022/09/14 08:01:29;;;;;;;2.97;2.77;;;24.80;63.00;;;;;;20666;6864;117481;-83
2022/09/14 08:03:51;;;;;;;3.93;2.90;;;24.90;62.40;;;;;;20648;6864;119605;-83
2022/09/14 08:06:17;;;;;;;3.17;2.90;;;24.80;62.30;;;;;;20649;6864;117961;-84
2022/09/14 08:08:43;;;;;;;3.00;2.60;;;24.80;63.40;;;;;;20655;6864;118413;-85
2022/09/14 08:11:26;;;;;;;3.97;2.90;;;24.80;63.40;;;;;;20631;6864;122177;-84
2022/09/14 08:13:52;;;;;;;2.70;2.53;;;24.80;63.70;;;;;;20642;6864;122222;-84
2022/09/14 08:16:18;;;;;;;3.57;2.80;;;25.00;63.60;;;;;;20639;6864;127458;-85
2022/09/14 08:18:43;;;;;;;3.30;3.03;;;25.00;63.60;;;;;;20441;6864;310486;-83
2022/09/14 08:21:09;;;;;;;3.23;3.00;;;25.40;61.90;;;;;;20428;6864;312533;-84
2022/09/14 08:23:35;;;;;;;3.80;3.00;;;25.90;62.30;;;;;;20421;6864;307406;-85
2022/09/14 08:26:03;;;;;;;4.72;3.20;;;26.30;61.40;;;;;;20438;6864;308221;-87
2022/09/14 08:28:29;;;;;;;3.60;2.97;;;26.70;58.90;;;;;;20637;6864;117809;-85
2022/09/14 08:30:55;;;;;;;3.10;2.80;;;26.70;58.90;;;;;;20427;6864;335452;-85
2022/09/14 08:33:20;;;;;;;2.97;2.70;;;26.70;58.00;;;;;;20411;6864;309165;-85
2022/09/14 08:35:46;;;;;;;3.07;2.87;;;26.90;57.20;;;;;;20652;6864;117538;-85
2022/09/14 08:38:12;;;;;;;3.00;2.67;;;26.80;57.60;;;;;;20626;6864;119984;-85
2022/09/14 08:40:44;;;;;;;3.30;2.80;;;26.60;57.80;;;;;;20428;6864;311925;-85
2022/09/14 08:43:09;;;;;;;2.67;2.47;;;26.70;55.90;;;;;;20408;6864;278187;-84
2022/09/14 08:45:36;;;;;;;2.63;2.43;;;26.80;56.00;;;;;;20661;6862;116520;-84
2022/09/14 08:48:02;;;;;;;2.53;2.43;;;26.60;56.40;;;;;;20651;6864;117805;-82
2022/09/14 08:50:29;;;;;;;2.70;2.50;;;26.30;57.40;;;;;;20663;6864;118291;-85
2022/09/14 08:52:55;;;;;;;3.62;2.70;;;26.20;58.90;;;;;;20439;6864;318772;-85
2022/09/14 08:55:40;;;;;;;2.87;2.67;;;26.30;58.90;;;;;;20662;6864;117915;-84
2022/09/14 08:58:06;;;;;;;2.60;2.40;;;26.50;59.00;;;;;;20660;6864;117521;-84
2022/09/14 09:00:40;;;;;;;3.07;2.40;;;26.80;59.20;;;;;;20635;6864;120522;-84
2022/09/14 09:03:28;;;;;;;2.93;2.73;;;26.80;59.20;;;;;;20640;6864;117706;-85
2022/09/14 09:05:57;;;;;;;3.65;2.70;;;26.90;58.10;;;;;;20435;6864;338208;-86
2022/09/14 09:08:48;;;;;;;2.30;2.20;;;27.50;57.80;;;;;;20610;6864;118341;-84
2022/09/14 09:11:14;;;;;;;4.63;2.63;;;27.70;56.80;;;;;;20659;6864;118079;-86
2022/09/14 09:13:41;;;;;;;2.80;2.50;;;27.80;56.60;;;;;;20424;6864;308703;-84
2022/09/14 09:16:06;;;;;;;2.33;2.13;;;28.10;55.80;;;;;;20615;6864;118623;-86
2022/09/14 09:18:38;;;;;;;2.60;2.40;;;28.30;55.60;;;;;;20432;6864;309638;-87
2022/09/14 09:21:14;;;;;;;2.60;2.40;;;28.50;53.50;;;;;;20438;6864;342330;-86
2022/09/14 09:23:39;;;;;;;4.30;2.47;;;28.80;51.90;;;;;;20435;6864;296990;-85
2022/09/14 09:26:08;;;;;;;2.60;2.40;;;29.10;50.90;;;;;;20653;6864;117894;-84
2022/09/14 09:28:33;;;;;;;2.50;2.30;;;29.00;51.30;;;;;;20450;6864;308237;-85
2022/09/14 09:31:00;;;;;;;2.50;2.30;;;29.20;50.50;;;;;;20417;6864;279862;-84
2022/09/14 09:33:25;;;;;;;3.93;2.23;;;29.20;50.50;;;;;;20632;6864;117476;-85
2022/09/14 09:35:51;;;;;;;2.55;2.10;;;29.20;51.60;;;;;;20433;6864;307922;-83
2022/09/14 09:38:16;;;;;;;3.33;2.40;;;29.30;51.00;;;;;;20629;6864;118384;-84
2022/09/14 09:40:46;;;;;;;2.73;2.53;;;29.30;51.40;;;;;;20633;6864;119845;-86
2022/09/14 09:43:12;;;;;;;2.35;2.20;;;29.30;51.90;;;;;;20430;6864;308723;-85
2022/09/14 09:45:58;;;;;;;3.65;2.25;;;29.20;51.90;;;;;;20444;6864;307505;-85
2022/09/14 09:48:23;;;;;;;4.43;2.30;;;29.50;50.50;;;;;;20448;6864;303091;-87
2022/09/14 09:51:09;;;;;;;3.28;2.20;;;29.90;50.30;;;;;;20654;6864;117534;-88
2022/09/14 09:53:36;;;;;;;3.07;2.30;;;29.70;50.80;;;;;;20631;6864;117658;-87
2022/09/14 09:56:02;;;;;;;3.57;2.50;;;29.70;50.80;;;;;;20594;6862;119000;-85
2022/09/14 09:58:34;;;;;;;6.63;2.20;;;29.60;51.20;;;;;;20655;6864;117439;-87
2022/09/14 10:01:06;;;;;;;3.83;2.28;;;29.60;52.00;;;;;;20444;6864;278900;-85
2022/09/14 10:03:35;;;;;;;4.35;2.28;;;29.90;50.70;;;;;;20383;6864;313268;-85
2022/09/14 10:06:01;;;;;;;3.95;2.28;;;30.40;47.90;;;;;;20389;6864;338461;-84
2022/09/14 10:08:26;;;;;;;5.30;2.20;;;30.70;47.20;;;;;;20615;6864;118129;-84
2022/09/14 10:10:52;;;;;;;64.67;6.20;;;30.80;48.40;;;;;;20625;6864;117999;-85
2022/09/14 10:13:20;;;;;;;13.88;4.30;;;30.60;48.90;;;;;;20656;6864;117839;-85
2022/09/14 10:15:47;;;;;;;8.93;2.83;;;30.50;48.50;;;;;;20613;6864;118491;-85
2022/09/14 10:18:12;;;;;;;8.67;3.60;;;30.30;49.00;;;;;;20640;6864;117844;-86
2022/09/14 10:20:50;;;;;;;5.60;2.53;;;30.20;49.10;;;;;;20448;6864;308071;-85
2022/09/14 10:23:20;;;;;;;3.53;2.40;;;30.30;47.20;;;;;;20378;6864;118640;-85
2022/09/14 10:25:46;;;;;;;5.70;2.70;;;30.20;48.10;;;;;;20656;6864;121573;-85
2022/09/14 10:28:28;;;;;;;5.77;2.60;;;30.00;49.00;;;;;;20634;6864;118542;-87
2022/09/14 10:31:14;;;;;;;2.20;1.93;;;29.60;49.30;;;;;;20647;6864;117304;-85
2022/09/14 10:33:40;;;;;;;3.47;2.30;;;29.60;49.30;;;;;;20650;6864;117313;-86
2022/09/14 10:36:10;;;;;;;4.10;2.30;;;29.30;49.70;;;;;;20639;6864;117553;-85
2022/09/14 10:38:54;;;;;;;3.70;2.40;;;29.60;48.20;;;;;;20434;6864;309053;-86
2022/09/14 10:41:48;;;;;;;4.00;2.53;;;29.60;48.10;;;;;;19352;7235;321709;-86
2022/09/14 10:44:24;;;;;;;2.50;2.30;;;29.90;47.80;;;;;;20312;6864;119501;-85
2022/09/14 10:47:02;;;;;;;2.60;2.30;;;29.90;48.50;;;;;;20661;6864;117806;-86
2022/09/14 10:49:46;;;;;;;2.60;2.40;;;29.70;49.10;;;;;;20456;6864;307877;-86
2022/09/14 10:52:43;;;;;;;2.40;1.90;;;29.90;47.70;;;;;;19984;6864;119055;-87
2022/09/14 10:55:24;;;;;;;7.27;2.70;;;29.90;49.10;;;;;;20657;6864;117233;-85
2022/09/14 10:58:17;;;;;;;4.50;2.40;;;29.60;49.40;;;;;;20420;6864;307654;-85
2022/09/14 11:00:50;;;;;;;2.57;2.13;;;29.90;47.80;;;;;;20417;6864;283603;-86
2022/09/14 11:03:21;;;;;;;2.43;2.20;;;30.20;46.70;;;;;;20651;6864;117509;-83
2022/09/14 11:06:06;;;;;;;4.13;2.20;;;30.10;47.30;;;;;;20666;6864;117847;-84
2022/09/14 11:08:38;;;;;;;2.87;1.90;;;30.00;47.70;;;;;;20714;6862;116426;-83
2022/09/14 11:11:26;;;;;;;2.23;2.03;;;29.70;47.40;;;;;;20719;6864;117102;-84
2022/09/14 11:14:05;;;;;;;2.67;1.70;;;29.60;47.40;;;;;;20708;6864;117474;-83
2022/09/14 11:17:10;;;;;;;1.97;1.83;;;29.40;47.80;;;;;;20723;6864;116452;-83
2022/09/14 11:19:45;;;;;;;2.80;2.33;;;29.30;47.90;;;;;;20713;6864;117447;-83
2022/09/14 11:22:47;;;;;;;4.47;4.10;;;29.10;47.70;;;;;;20468;6864;306548;-83
2022/09/14 11:25:22;;;;;;;3.33;2.70;;;29.30;45.20;;;;;;20526;6864;314530;-83
2022/09/14 11:28:06;;;;;;;2.53;2.07;;;29.60;43.50;;;;;;20708;6864;116528;-83
2022/09/14 11:30:32;;;;;;;3.33;1.80;;;29.50;44.50;;;;;;20315;6864;312621;-85
2022/09/14 11:33:18;;;;;;;1.67;1.57;;;29.60;43.90;;;;;;20634;6864;119032;-85
2022/09/14 11:35:44;;;;;;;2.70;1.73;;;29.40;44.50;;;;;;20637;6864;117300;-85
2022/09/14 11:38:19;;;;;;;2.70;1.63;;;29.10;45.60;;;;;;20622;6864;117744;-86
2022/09/14 11:41:07;;;;;;;4.83;1.93;;;28.90;46.10;;;;;;20562;6864;117184;-86
2022/09/14 11:43:43;;;;;;;2.77;1.63;;;28.90;46.90;;;;;;20421;6864;311962;-86
2022/09/14 11:46:11;;;;;;;2.13;1.70;;;29.10;45.20;;;;;;20436;6864;308469;-84
2022/09/14 11:48:43;;;;;;;3.40;1.90;;;29.50;44.90;;;;;;20441;6864;308021;-84
2022/09/14 11:51:22;;;;;;;3.13;1.63;;;30.00;43.90;;;;;;20442;6864;278308;-85
2022/09/14 11:53:49;;;;;;;5.60;2.78;;;30.00;43.90;;;;;;20444;6864;338522;-84
2022/09/14 11:56:25;;;;;;;33.50;3.40;;;30.20;43.00;;;;;;20652;6864;120417;-85
2022/09/14 11:58:49;;;;;;;9.00;2.50;;;30.00;44.20;;;;;;20440;6864;278573;-84
2022/09/14 12:01:29;;;;;;;4.60;2.00;;;29.90;44.40;;;;;;20456;6864;278098;-86
2022/09/14 12:04:11;;;;;;;6.17;2.07;;;30.00;44.20;;;;;;20618;6864;118401;-84
2022/09/14 12:06:37;;;;;;;5.33;1.90;;;29.90;44.90;;;;;;20641;6864;120183;-85
2022/09/14 12:09:13;;;;;;;2.67;2.00;;;29.50;45.50;;;;;;20628;6864;117452;-85
2022/09/14 12:11:38;;;;;;;2.60;1.90;;;29.30;46.00;;;;;;20660;6864;118535;-85
2022/09/14 12:14:20;;;;;;;6.40;2.53;;;29.10;46.60;;;;;;20417;6864;311855;-83
2022/09/14 12:17:12;;;;;;;437.25;38.33;;;29.20;46.00;;;;;;20426;6864;344931;-82
2022/09/14 12:19:37;;;;;;;226.87;22.43;;;29.50;46.30;;;;;;20447;6862;279205;-82
2022/09/14 12:22:23;;;;;;;95.83;9.60;;;29.60;45.80;;;;;;20636;6864;120190;-83
2022/09/14 12:24:59;;;;;;;259.23;25.88;;;29.20;47.40;;;;;;20229;6864;311777;-83
2022/09/14 12:27:26;;;;;;;9.30;3.13;;;29.20;47.40;;;;;;20639;6864;118300;-83
2022/09/14 12:29:51;;;;;;;12.90;3.00;;;28.90;48.10;;;;;;20660;6864;117384;-83
2022/09/14 12:32:26;;;;;;;116.72;15.77;;;28.40;48.90;;;;;;20608;6864;117590;-85
2022/09/14 12:35:19;;;;;;;6.97;2.70;;;28.00;49.50;;;;;;20544;6864;121831;-84
2022/09/14 12:37:44;;;;;;;3.77;2.30;;;27.70;50.30;;;;;;20206;6864;120381;-85
2022/09/14 12:40:10;;;;;;;130.53;13.47;;;27.30;50.90;;;;;;20654;6864;140344;-88
2022/09/14 12:42:35;;;;;;;111.90;12.13;;;27.10;51.50;;;;;;20259;6864;283659;-84
2022/09/14 12:45:01;;;;;;;62.17;10.10;;;27.20;51.30;;;;;;20677;6864;117808;-86
2022/09/14 12:47:27;;;;;;;53.90;7.30;;;27.10;51.40;;;;;;20399;6864;279095;-83